createdAt,value
2023-02-19T00:01:22.492Z,4.35
2023-02-19T00:03:52.131Z,4.20
2023-02-19T00:06:20.487Z,4.20
2023-02-19T00:08:47.567Z,4.28
2023-02-19T00:11:17.231Z,4.18
2023-02-19T00:13:47.160Z,4.60
2023-02-19T00:16:20.369Z,4.32
2023-02-19T00:18:47.098Z,4.07
2023-02-19T00:21:14.273Z,4.18
2023-02-19T00:23:40.929Z,4.57
2023-02-19T00:26:18.562Z,4.50
2023-02-19T00:28:46.939Z,4.35
2023-02-19T00:31:18.608Z,4.72
2023-02-19T00:33:46.680Z,4.60
2023-02-19T00:36:14.284Z,4.70
2023-02-19T00:38:42.458Z,4.60
2023-02-19T00:41:19.208Z,4.85
2023-02-19T00:43:55.832Z,4.63
2023-02-19T00:46:28.246Z,4.60
2023-02-19T00:48:55.265Z,5.22
2023-02-19T00:51:24.148Z,4.93
2023-02-19T00:53:50.999Z,4.90
2023-02-19T00:56:18.368Z,5.20
2023-02-19T00:58:45.149Z,4.80
2023-02-19T01:01:12.272Z,5.18
2023-02-19T01:03:40.236Z,5.35
2023-02-19T01:06:10.043Z,5.35
2023-02-19T01:08:36.705Z,5.63
2023-02-19T01:11:05.307Z,5.25
2023-02-19T01:13:32.311Z,4.60
2023-02-19T01:16:17.293Z,4.72
2023-02-19T01:18:44.885Z,4.82
2023-02-19T01:21:22.031Z,5.15
2023-02-19T01:23:50.023Z,5.32
2023-02-19T01:26:20.109Z,5.20
2023-02-19T01:28:48.187Z,4.68
2023-02-19T01:31:17.898Z,5.13
2023-02-19T01:33:46.843Z,4.55
2023-02-19T01:36:14.120Z,5.05
2023-02-19T01:38:40.972Z,5.20
2023-02-19T01:41:10.152Z,5.30
2023-02-19T01:44:08.019Z,4.90
2023-02-19T01:46:36.728Z,5.18
2023-02-19T01:49:09.686Z,5.28
2023-02-19T01:51:39.725Z,5.00
2023-02-19T01:54:08.427Z,4.85
2023-02-19T01:56:38.188Z,4.55
2023-02-19T01:59:06.547Z,4.80
2023-02-19T02:01:33.279Z,4.13
2023-02-19T02:04:00.429Z,4.50
2023-02-19T02:06:42.337Z,4.55
2023-02-19T02:09:28.844Z,4.47
2023-02-19T02:11:55.403Z,4.35
2023-02-19T02:14:25.834Z,4.05
2023-02-19T02:16:55.357Z,4.25
2023-02-19T02:19:42.726Z,4.35
2023-02-19T02:22:21.018Z,3.75
2023-02-19T02:25:26.153Z,4.20
2023-02-19T02:28:14.122Z,4.03
2023-02-19T02:30:48.682Z,4.57
2023-02-19T02:33:42.236Z,3.97
2023-02-19T02:36:26.994Z,3.45
2023-02-19T02:38:55.380Z,3.93
2023-02-19T02:41:22.328Z,3.25
2023-02-19T02:43:49.004Z,3.88
2023-02-19T02:46:21.954Z,4.18
2023-02-19T02:48:56.132Z,3.60
2023-02-19T02:51:28.908Z,3.78
2023-02-19T02:54:26.356Z,4.03
2023-02-19T02:56:54.348Z,3.85
2023-02-19T02:59:24.959Z,4.10
2023-02-19T03:02:11.400Z,3.70
2023-02-19T03:05:04.141Z,3.67
2023-02-19T03:07:41.448Z,3.55
2023-02-19T03:10:12.931Z,3.60
2023-02-19T03:13:00.340Z,4.20
2023-02-19T03:15:54.157Z,3.80
2023-02-19T03:18:41.454Z,4.25
2023-02-19T03:21:09.910Z,3.95
2023-02-19T03:23:56.719Z,3.60
2023-02-19T03:26:25.370Z,4.07
2023-02-19T03:29:11.771Z,3.83
2023-02-19T03:31:39.673Z,3.85
2023-02-19T03:34:12.145Z,3.83
2023-02-19T03:37:02.831Z,3.78
2023-02-19T03:39:29.524Z,3.95
2023-02-19T03:41:56.295Z,3.92
2023-02-19T03:44:47.846Z,3.70
2023-02-19T03:47:32.550Z,3.65
2023-02-19T03:50:19.544Z,3.10
2023-02-19T03:53:28.969Z,3.60
2023-02-19T03:56:28.251Z,3.47
2023-02-19T03:58:54.766Z,2.95
2023-02-19T04:01:33.228Z,3.17
2023-02-19T04:04:08.920Z,3.08
2023-02-19T04:06:37.183Z,2.95
2023-02-19T04:09:08.538Z,2.90
2023-02-19T04:11:36.521Z,3.00
2023-02-19T04:14:11.467Z,3.05
2023-02-19T04:16:42.661Z,2.67
2023-02-19T04:19:13.290Z,2.60
2023-02-19T04:21:41.558Z,2.88
2023-02-19T04:24:16.383Z,2.83
2023-02-19T04:26:44.624Z,2.80
2023-02-19T04:29:11.195Z,3.40
2023-02-19T04:31:38.404Z,3.20
2023-02-19T04:34:05.156Z,3.15
2023-02-19T04:36:32.704Z,3.17
2023-02-19T04:38:59.806Z,2.70
2023-02-19T04:41:26.447Z,2.95
2023-02-19T04:43:53.242Z,3.00
2023-02-19T04:46:20.074Z,2.28
2023-02-19T04:48:46.760Z,2.50
2023-02-19T04:51:13.677Z,2.20
2023-02-19T04:53:40.337Z,2.20
2023-02-19T04:56:08.963Z,1.95
2023-02-19T04:58:35.923Z,1.90
2023-02-19T05:01:02.868Z,2.00
2023-02-19T05:03:29.933Z,1.73
2023-02-19T05:05:56.572Z,1.98
2023-02-19T05:08:23.381Z,1.70
2023-02-19T05:10:49.942Z,1.67
2023-02-19T05:13:16.553Z,1.70
2023-02-19T05:15:43.132Z,1.83
2023-02-19T05:18:09.705Z,1.35
2023-02-19T05:20:36.721Z,1.27
2023-02-19T05:23:03.309Z,1.27
2023-02-19T05:25:29.877Z,0.70
2023-02-19T05:28:16.383Z,1.00
2023-02-19T05:30:49.182Z,1.15
2023-02-19T05:33:16.947Z,0.88
2023-02-19T05:35:49.171Z,1.20
2023-02-19T05:38:16.803Z,0.75
2023-02-19T05:40:44.165Z,0.80
2023-02-19T05:43:11.392Z,0.90
2023-02-19T05:45:38.157Z,0.90
2023-02-19T05:48:05.608Z,0.90
2023-02-19T05:50:34.686Z,0.70
2023-02-19T05:53:02.138Z,0.80
2023-02-19T05:55:29.199Z,0.40
2023-02-19T05:57:56.073Z,0.50
2023-02-19T06:00:22.983Z,0.60
2023-02-19T06:02:49.595Z,0.40
2023-02-19T06:05:16.258Z,0.60
2023-02-19T06:07:42.873Z,0.60
2023-02-19T06:10:10.740Z,0.60
2023-02-19T06:12:38.028Z,0.70
2023-02-19T06:15:06.050Z,0.70
2023-02-19T06:17:33.696Z,0.80
2023-02-19T06:20:00.712Z,0.60
2023-02-19T06:22:27.761Z,0.70
2023-02-19T06:24:54.387Z,0.90
2023-02-19T06:27:21.064Z,1.20
2023-02-19T06:29:47.656Z,1.08
2023-02-19T06:32:14.256Z,0.98
2023-02-19T06:34:40.896Z,0.60
2023-02-19T06:37:07.694Z,0.77
2023-02-19T06:39:34.302Z,0.70
2023-02-19T06:42:00.822Z,0.85
2023-02-19T06:44:27.436Z,0.63
2023-02-19T06:46:56.875Z,0.70
2023-02-19T06:49:23.426Z,0.80
2023-02-19T06:51:50.017Z,0.73
2023-02-19T06:54:16.642Z,0.80
2023-02-19T06:56:44.899Z,0.98
2023-02-19T06:59:16.816Z,0.80
2023-02-19T07:01:44.640Z,0.90
2023-02-19T07:04:11.655Z,0.98
2023-02-19T07:06:38.534Z,1.25
2023-02-19T07:09:07.100Z,1.30
2023-02-19T07:11:35.628Z,1.20
2023-02-19T07:14:04.261Z,1.27
2023-02-19T07:16:31.213Z,1.05
2023-02-19T07:18:59.273Z,0.95
2023-02-19T07:21:26.555Z,1.10
2023-02-19T07:23:53.391Z,1.30
2023-02-19T07:26:21.525Z,1.38
2023-02-19T07:28:50.057Z,1.30
2023-02-19T07:31:18.726Z,1.15
2023-02-19T07:33:46.525Z,1.35
2023-02-19T07:36:14.464Z,1.00
2023-02-19T07:38:40.984Z,1.30
2023-02-19T07:41:08.032Z,1.30
2023-02-19T07:43:37.145Z,1.52
2023-02-19T07:46:05.456Z,1.52
2023-02-19T07:48:32.002Z,1.30
2023-02-19T07:51:00.366Z,1.25
2023-02-19T07:53:28.086Z,1.52
2023-02-19T07:55:59.353Z,1.40
2023-02-19T07:58:26.031Z,1.30
2023-02-19T08:00:52.886Z,1.20
2023-02-19T08:03:19.609Z,1.42
2023-02-19T08:05:46.296Z,1.50
2023-02-19T08:08:14.472Z,1.30
2023-02-19T08:10:59.999Z,1.25
2023-02-19T08:13:29.902Z,0.98
2023-02-19T08:16:18.705Z,1.20
2023-02-19T08:18:49.316Z,1.40
2023-02-19T08:21:18.137Z,1.20
2023-02-19T08:23:46.199Z,1.25
2023-02-19T08:26:13.156Z,1.20
2023-02-19T08:28:39.683Z,1.30
2023-02-19T08:31:07.782Z,1.40
2023-02-19T08:33:35.084Z,1.70
2023-02-19T08:36:04.728Z,1.40
2023-02-19T08:38:35.899Z,1.75
2023-02-19T08:41:08.100Z,2.00
2023-02-19T08:43:35.513Z,1.90
2023-02-19T08:46:02.220Z,1.50
2023-02-19T08:48:28.957Z,1.65
2023-02-19T08:50:57.998Z,1.70
2023-02-19T08:53:25.040Z,1.83
2023-02-19T08:55:52.773Z,1.75
2023-02-19T08:58:19.372Z,2.17
2023-02-19T09:00:45.945Z,2.10
2023-02-19T09:03:12.524Z,2.45
2023-02-19T09:05:39.723Z,2.03
2023-02-19T09:08:06.533Z,2.50
2023-02-19T09:10:33.496Z,2.72
2023-02-19T09:13:00.311Z,2.33
2023-02-19T09:15:28.705Z,2.20
2023-02-19T09:17:55.374Z,2.03
2023-02-19T09:20:21.989Z,2.80
2023-02-19T09:22:48.564Z,1.88
2023-02-19T09:25:15.178Z,2.70
2023-02-19T09:27:41.785Z,2.15
2023-02-19T09:30:08.670Z,2.90
2023-02-19T09:32:35.292Z,2.55
2023-02-19T09:35:02.306Z,2.50
2023-02-19T09:37:29.299Z,4.90
2023-02-19T09:39:55.904Z,4.57
2023-02-19T09:42:25.440Z,2.20
2023-02-19T09:44:55.455Z,3.70
2023-02-19T09:47:25.276Z,4.10
2023-02-19T09:49:55.648Z,3.40
2023-02-19T09:52:36.740Z,2.35
2023-02-19T09:55:13.948Z,2.28
2023-02-19T09:57:41.426Z,2.17
2023-02-19T10:00:25.677Z,2.28
2023-02-19T10:02:54.873Z,2.88
2023-02-19T10:05:23.412Z,2.63
2023-02-19T10:07:53.257Z,3.17
2023-02-19T10:10:28.882Z,2.63
2023-02-19T10:13:05.860Z,2.97
2023-02-19T10:15:41.476Z,3.38
2023-02-19T10:18:11.110Z,4.55
2023-02-19T10:20:38.103Z,4.03
2023-02-19T10:23:07.215Z,3.22
2023-02-19T10:25:35.168Z,3.17
2023-02-19T10:28:03.091Z,2.40
2023-02-19T10:30:33.093Z,2.95
2023-02-19T10:33:14.597Z,2.70
2023-02-19T10:36:07.577Z,2.85
2023-02-19T10:38:39.909Z,3.22
2023-02-19T10:41:12.387Z,3.30
2023-02-19T10:43:42.723Z,3.78
2023-02-19T10:46:18.601Z,3.80
2023-02-19T10:49:07.432Z,3.45
2023-02-19T10:51:41.486Z,4.03
2023-02-19T10:54:18.887Z,3.58
2023-02-19T10:56:45.735Z,4.20
2023-02-19T10:59:27.888Z,5.18
2023-02-19T11:01:55.117Z,4.22
2023-02-19T11:04:22.174Z,3.97
2023-02-19T11:06:49.015Z,5.05
2023-02-19T11:09:26.680Z,3.70
2023-02-19T11:11:55.116Z,3.90
2023-02-19T11:14:24.174Z,4.35
2023-02-19T11:16:57.109Z,3.70
2023-02-19T11:19:39.731Z,4.53
2023-02-19T11:22:32.422Z,4.35
2023-02-19T11:25:19.455Z,4.10
2023-02-19T11:28:04.026Z,3.30
2023-02-19T11:30:30.606Z,3.28
2023-02-19T11:33:16.212Z,2.88
2023-02-19T11:35:44.196Z,2.65
2023-02-19T11:38:13.599Z,3.38
2023-02-19T11:40:59.230Z,3.00
2023-02-19T11:46:19.152Z,3.35
2023-02-19T11:49:02.408Z,3.58
2023-02-19T11:51:52.862Z,3.78
2023-02-19T11:54:48.514Z,3.38
2023-02-19T11:57:37.785Z,3.30
2023-02-19T12:00:24.913Z,5.65
2023-02-19T12:03:29.259Z,6.93
2023-02-19T12:06:35.899Z,7.97
2023-02-19T12:09:36.450Z,3.42
2023-02-19T12:12:24.203Z,2.95
2023-02-19T12:15:02.356Z,2.63
2023-02-19T12:17:44.240Z,3.13
2023-02-19T12:20:31.783Z,3.00
2023-02-19T12:23:01.805Z,3.63
2023-02-19T12:25:57.699Z,4.50
2023-02-19T12:28:49.828Z,3.28
2023-02-19T12:31:34.784Z,3.70
2023-02-19T12:34:46.021Z,3.97
2023-02-19T12:37:29.147Z,3.72
2023-02-19T12:40:19.097Z,3.03
2023-02-19T12:43:06.857Z,2.53
2023-02-19T12:45:36.177Z,3.63
2023-02-19T12:48:24.790Z,3.30
2023-02-19T12:50:57.156Z,3.45
2023-02-19T12:53:50.864Z,2.60
2023-02-19T12:56:38.216Z,3.30
2023-02-19T12:59:16.960Z,2.97
2023-02-19T13:01:50.581Z,3.08
2023-02-19T13:04:32.658Z,3.60
2023-02-19T13:07:14.880Z,3.53
2023-02-19T13:09:53.568Z,3.60
2023-02-19T13:12:28.345Z,4.55
2023-02-19T13:15:01.205Z,3.55
2023-02-19T13:17:49.007Z,7.38
2023-02-19T13:20:27.231Z,5.93
2023-02-19T13:23:37.354Z,5.93
2023-02-19T13:26:31.751Z,3.10
2023-02-19T13:29:22.833Z,2.97
2023-02-19T13:32:15.353Z,4.05
2023-02-19T13:35:22.466Z,4.25
2023-02-19T13:37:49.732Z,5.43
2023-02-19T13:40:30.199Z,2.70
2023-02-19T13:43:02.864Z,4.55
2023-02-19T13:45:40.494Z,3.55
2023-02-19T13:48:28.308Z,2.38
2023-02-19T13:51:16.333Z,2.40
2023-02-19T13:53:45.795Z,3.50
2023-02-19T13:56:34.292Z,3.70
2023-02-19T13:59:39.393Z,4.15
2023-02-19T14:02:12.382Z,5.47
2023-02-19T14:04:44.587Z,3.97
2023-02-19T14:07:11.162Z,3.35
2023-02-19T14:09:40.484Z,2.20
2023-02-19T14:12:15.088Z,2.17
2023-02-19T14:14:46.097Z,2.20
2023-02-19T14:17:45.740Z,2.60
2023-02-19T14:20:15.390Z,2.28
2023-02-19T14:22:58.696Z,2.38
2023-02-19T14:25:30.099Z,2.53
2023-02-19T14:28:17.832Z,2.40
2023-02-19T14:31:18.143Z,2.30
2023-02-19T14:33:48.830Z,2.60
2023-02-19T14:36:23.166Z,2.00
2023-02-19T14:38:58.797Z,2.17
2023-02-19T14:41:27.172Z,2.25
2023-02-19T14:43:56.472Z,2.92
2023-02-19T14:46:31.604Z,2.20
2023-02-19T14:49:07.943Z,1.77
2023-02-19T14:51:43.999Z,2.22
2023-02-19T14:54:20.432Z,2.33
2023-02-19T14:56:50.850Z,2.17
2023-02-19T14:59:20.399Z,1.60
2023-02-19T15:01:57.502Z,2.10
2023-02-19T15:04:27.148Z,1.52
2023-02-19T15:06:56.899Z,1.90
2023-02-19T15:09:33.106Z,2.15
2023-02-19T15:12:02.565Z,2.95
2023-02-19T15:14:30.740Z,2.40
2023-02-19T15:17:04.551Z,2.60
2023-02-19T15:19:35.291Z,1.98
2023-02-19T15:22:02.543Z,1.70
2023-02-19T15:24:29.690Z,1.52
2023-02-19T15:26:56.568Z,2.25
2023-02-19T15:29:25.463Z,1.60
2023-02-19T15:31:53.694Z,1.60
2023-02-19T15:34:21.898Z,1.33
2023-02-19T15:36:51.198Z,1.80
2023-02-19T15:39:24.761Z,1.45
2023-02-19T15:41:56.292Z,1.65
2023-02-19T15:44:42.560Z,1.50
2023-02-19T15:47:19.908Z,1.67
2023-02-19T15:50:11.331Z,1.65
2023-02-19T15:52:51.705Z,1.70
2023-02-19T15:55:31.423Z,2.50
2023-02-19T15:58:23.721Z,3.00
2023-02-19T16:01:01.508Z,2.40
2023-02-19T16:03:30.056Z,2.45
2023-02-19T16:06:10.308Z,4.00
2023-02-19T16:08:40.980Z,1.88
2023-02-19T16:11:39.996Z,6.00
2023-02-19T16:14:30.316Z,2.60
2023-02-19T16:17:11.336Z,2.40
2023-02-19T16:19:54.982Z,1.35
2023-02-19T16:22:27.352Z,1.50
2023-02-19T16:25:00.391Z,1.40
2023-02-19T16:27:36.362Z,1.67
2023-02-19T16:30:18.815Z,1.33
2023-02-19T16:32:47.066Z,1.38
2023-02-19T16:35:39.645Z,1.13
2023-02-19T16:38:20.507Z,1.30
2023-02-19T16:40:54.081Z,1.10
2023-02-19T16:43:38.198Z,1.40
2023-02-19T16:46:07.168Z,1.45
2023-02-19T16:48:33.934Z,1.40
2023-02-19T16:51:01.372Z,1.05
2023-02-19T16:53:29.264Z,2.00
2023-02-19T16:55:57.108Z,2.20
2023-02-19T16:58:23.672Z,1.60
2023-02-19T17:00:50.346Z,1.40
2023-02-19T17:03:21.080Z,1.67
2023-02-19T17:05:47.840Z,1.67
2023-02-19T17:08:37.430Z,1.60
2023-02-19T17:11:06.816Z,1.83
2023-02-19T17:13:33.358Z,1.95
2023-02-19T17:16:00.087Z,1.77
2023-02-19T17:18:26.717Z,1.80
2023-02-19T17:21:12.204Z,2.10
2023-02-19T17:26:05.683Z,2.60
2023-02-19T17:28:32.260Z,2.47
2023-02-19T17:30:58.851Z,3.35
2023-02-19T17:33:25.373Z,2.78
2023-02-19T17:35:51.967Z,4.57
2023-02-19T17:38:18.495Z,3.20
2023-02-19T17:40:45.169Z,2.95
2023-02-19T17:43:11.829Z,2.28
2023-02-19T17:45:38.663Z,2.30
2023-02-19T17:48:06.469Z,2.45
2023-02-19T17:50:33.088Z,3.05
2023-02-19T17:52:59.696Z,3.08
2023-02-19T17:55:26.813Z,2.80
2023-02-19T17:57:53.642Z,2.78
2023-02-19T18:00:23.085Z,2.60
2023-02-19T18:02:50.234Z,2.40
2023-02-19T18:05:17.396Z,2.28
2023-02-19T18:07:44.902Z,2.40
2023-02-19T18:10:11.965Z,9.40
2023-02-19T18:12:39.260Z,6.40
2023-02-19T18:15:08.132Z,12.88
2023-02-19T18:17:35.255Z,4.63
2023-02-19T18:20:01.945Z,8.80
2023-02-19T18:22:28.468Z,5.53
2023-02-19T18:24:55.132Z,6.38
2023-02-19T18:27:23.344Z,5.13
2023-02-19T18:29:54.830Z,3.90
2023-02-19T18:32:23.192Z,3.10
2023-02-19T18:34:51.778Z,3.10
2023-02-19T18:37:19.969Z,3.40
2023-02-19T18:39:46.597Z,3.08
2023-02-19T18:42:13.746Z,3.22
2023-02-19T18:44:40.781Z,2.88
2023-02-19T18:47:08.680Z,3.42
2023-02-19T18:49:35.416Z,4.03
2023-02-19T18:52:02.021Z,3.88
2023-02-19T18:54:29.515Z,4.00
2023-02-19T18:56:56.461Z,4.50
2023-02-19T18:59:23.723Z,4.28
2023-02-19T19:01:51.307Z,4.50
2023-02-19T19:04:18.514Z,3.97
2023-02-19T19:06:45.233Z,3.35
2023-02-19T19:09:11.911Z,2.67
2023-02-19T19:11:38.570Z,3.13
2023-02-19T19:14:05.187Z,3.03
2023-02-19T19:16:31.693Z,2.80
2023-02-19T19:18:58.561Z,2.90
2023-02-19T19:21:25.268Z,2.78
2023-02-19T19:23:51.922Z,3.05
2023-02-19T19:26:19.880Z,2.80
2023-02-19T19:28:46.481Z,2.88
2023-02-19T19:31:15.025Z,2.70
2023-02-19T19:33:43.018Z,2.97
2023-02-19T19:36:10.875Z,3.00
2023-02-19T19:38:38.093Z,3.50
2023-02-19T19:41:05.444Z,3.13
2023-02-19T19:43:33.085Z,3.20
2023-02-19T19:46:00.416Z,3.40
2023-02-19T19:48:27.654Z,2.80
2023-02-19T19:50:56.637Z,2.60
2023-02-19T19:53:24.184Z,3.10
2023-02-19T19:55:50.820Z,3.63
2023-02-19T19:58:20.766Z,3.47
2023-02-19T20:00:47.261Z,3.30
2023-02-19T20:03:14.092Z,3.20
2023-02-19T20:05:40.738Z,3.63
2023-02-19T20:08:07.426Z,3.67
2023-02-19T20:10:33.986Z,4.10
2023-02-19T20:13:01.652Z,3.38
2023-02-19T20:15:28.224Z,3.47
2023-02-19T20:17:54.920Z,3.88
2023-02-19T20:20:22.663Z,3.30
2023-02-19T20:22:52.682Z,3.65
2023-02-19T20:25:21.369Z,3.88
2023-02-19T20:27:52.239Z,4.43
2023-02-19T20:30:22.418Z,3.67
2023-02-19T20:32:48.984Z,4.00
2023-02-19T20:35:17.566Z,3.70
2023-02-19T20:37:44.387Z,4.10
2023-02-19T20:40:12.448Z,4.55
2023-02-19T20:42:39.032Z,4.65
2023-02-19T20:45:06.058Z,3.65
2023-02-19T20:47:32.614Z,4.05
2023-02-19T20:49:59.223Z,4.00
2023-02-19T20:52:25.828Z,4.22
2023-02-19T20:54:56.725Z,4.97
2023-02-19T20:57:24.028Z,5.22
2023-02-19T20:59:50.693Z,4.68
2023-02-19T21:05:58.384Z,4.25
2023-02-19T21:08:24.871Z,5.03
2023-02-19T21:10:51.438Z,5.20
2023-02-19T21:13:17.991Z,4.78
2023-02-19T21:15:44.618Z,4.97
2023-02-19T21:18:12.108Z,5.15
2023-02-19T21:20:38.618Z,5.30
2023-02-19T21:23:05.174Z,6.20
2023-02-19T21:25:33.082Z,5.70
2023-02-19T21:27:59.689Z,5.50
2023-02-19T21:30:26.305Z,8.60
2023-02-19T21:32:52.878Z,11.00
2023-02-19T21:35:19.448Z,8.10
2023-02-19T21:37:45.983Z,9.90
2023-02-19T21:40:12.826Z,6.57
2023-02-19T21:42:39.536Z,6.28
2023-02-19T21:45:06.613Z,10.10
2023-02-19T21:47:33.124Z,6.35
2023-02-19T21:49:59.759Z,9.40
2023-02-19T21:52:26.869Z,5.22
2023-02-19T21:54:53.537Z,5.68
2023-02-19T21:57:30.676Z,5.75
2023-02-19T21:59:57.249Z,5.93
2023-02-19T22:02:24.269Z,5.00
2023-02-19T22:04:54.585Z,5.10
2023-02-19T22:07:22.151Z,5.00
2023-02-19T22:09:49.843Z,5.38
2023-02-19T22:12:17.366Z,4.63
2023-02-19T22:14:44.584Z,4.88
2023-02-19T22:17:11.383Z,4.85
2023-02-19T22:19:38.223Z,5.30
2023-02-19T22:22:05.012Z,5.20
2023-02-19T22:24:31.575Z,4.55
2023-02-19T22:26:58.763Z,4.80
2023-02-19T22:29:25.512Z,4.50
2023-02-19T22:31:52.811Z,4.20
2023-02-19T22:34:19.575Z,4.65
2023-02-19T22:36:46.177Z,5.25
2023-02-19T22:39:24.633Z,4.82
2023-02-19T22:41:52.114Z,5.07
2023-02-19T22:44:18.995Z,5.13
2023-02-19T22:46:48.307Z,5.00
2023-02-19T22:49:15.242Z,5.38
2023-02-19T22:52:16.464Z,5.00
2023-02-19T22:54:43.034Z,4.82
2023-02-19T22:57:09.586Z,5.47
2023-02-19T22:59:36.116Z,5.13
2023-02-19T23:02:02.715Z,4.95
2023-02-19T23:04:29.296Z,5.32
2023-02-19T23:06:55.896Z,5.18
2023-02-19T23:09:29.021Z,5.50
2023-02-19T23:12:06.142Z,5.28
2023-02-19T23:14:32.971Z,5.43
2023-02-19T23:16:59.626Z,5.70
2023-02-19T23:19:26.684Z,5.32
2023-02-19T23:21:53.760Z,5.35
2023-02-19T23:24:20.513Z,6.03
2023-02-19T23:26:50.325Z,5.80
2023-02-19T23:29:19.594Z,5.90
2023-02-19T23:31:46.566Z,5.80
2023-02-19T23:34:13.645Z,5.22
2023-02-19T23:36:44.723Z,5.28
2023-02-19T23:39:13.251Z,5.47
2023-02-19T23:41:46.091Z,5.05
2023-02-19T23:44:12.627Z,5.80
2023-02-19T23:46:39.211Z,5.32
2023-02-19T23:49:06.340Z,5.22
2023-02-19T23:51:32.909Z,4.85
2023-02-19T23:53:59.567Z,5.10
2023-02-19T23:56:28.161Z,5.80
2023-02-19T23:58:54.718Z,5.25
